Fort Yukon, AK

4:59 AM AKDT on August 27, 2014 (GMT -0800)
Fort Yukon | Change Station
CLOSE
Current Station
Airport
Location: Fort Yukon,
Elevation: 430 ft
Nearby Weather Stations

Elev 430 ft 66.57 °N, 145.27 °W | Updated 3 minutes ago

Clear
Clear
45 °F
Feels Like 43 °F
N
4
Wind Variable Wind from SW

Today
High -- | Low -- °F
--% Chance of Precip.
Yesterday
High -- | Low -- °F
Precip. -- in
6:00 AM 9:26 PM
Waxing Crescent, 3% visible
Pressure 29.77 in
Visibility 10.0 miles
Clouds Clear
Windchill 43 °F
Dew Point 43 °F
Humidity 93%
Rainfall 0.00 in
Snow Depth 1 in
UV 0 out of 12
Pollen Not available.
Air Quality Not available.
Flu Activity Not available.
METAR PFYU 271256Z 23003KT 10SM CLR 07/06 A2977 RMK AO1

More Conditions Fewer Conditions

Pressure 29.77 in
Visibility 10.0 miles
Clouds Clear
Windchill 43 °F
Dew Point 43 °F
Humidity 93%
Rainfall 0.00 in
Snow Depth 1 in
UV 0 out of 12
Pollen Not available.
Air Quality Not available.
Flu Activity Not available.
METAR PFYU 271256Z 23003KT 10SM CLR 07/06 A2977 RMK AO1

More Conditions Fewer Conditions

10-Day Weather Forecast

Almanac

Astronomy

Aug. 27, 2014 Rise Set
Actual Time 6:00 AM AKDT 9:26 PM AKDT
Civil Twilight 4:57 AM AKDT 10:29 PM AKDT
Nautical Twilight 3:09 AM AKDT 12:11 AM AKDT
Astronomical Twilight Sun does not rise Sun does not rise
Moon 9:16 AM AKDT 9:02 PM AKDT
Length of Visible Light 17h 32m
Length of Day
15h 25m
Tomorrow will be 7m 24s shorter.
Waxing Crescent, 3% of the Moon is Illuminated
Today
Waxing Crescent
Sep 2
First Quarter
Sep 8
Full
Sep 15
Last Quarter
Sep 24
New

Today's Extremes

State Highs State Lows

Community

WunderPhotos

Upload Photos

1,747,676 photos uploaded!

Nearby

Snow Depth

Station Depth Elevation
Fort Yukon 1 in 430 ft
Eagle Summit 1 in 3650 ft
Monument Creek 0 in 1850 ft
Little Chena Ridge 1 in 2000 ft
Upper Chena 1 in 2850 ft

Earthquake Activity

City Distance Mag. Time & Date
No recent earthquake activity has been reported nearby.
Minimum magnitude displayed is 2.5.

Coastal Water Temperatures

Place Temperature
No Stations Reporting

Nearby Weather Stations